Manalapan, Florida
Current Conditions -  °F | °C
As of 4:53 AM on Friday 24 Oct 2014 (Local Time) from KPBI Reporting Station
Overcast Overcast  
Wind Chill: 77°   Ceiling: 3300
Heat Index: 79°   Visibility: 10mi
Dew Point: 65°   Wind: 15mph
Humidity: 66%   Direction: 50°NE
Pressure: 29.86"   Gusts: NA
Location:  26.5758°N, 80.0835°W
Report Text: KPBI 240853Z 05013KT 10SM OVC033 25/18 A2986 RMK AO2 SLP110 T02500183 56016
Loading
Personal Weather Stations






























Interactive Weather Map
Tropical Storm Tracking
New forecast layout! Learn more

10-Day Weather Forecast

Advertisements
Track Severe Weather on mobile